Weather History for Holdrege, NE

Change the Weather History Date:

Saturday, June 7, 2014

  Actual Average Record
Temperature  
Mean Temperature 60 °F -  
Max Temperature 67 °F 82 °F 99 °F (1969)
Min Temperature 53 °F 55 °F 45 °F (1983)
Degree Days  
Heating Degree Days 5    
Growing Degree Days 10 (Base 50)    
Moisture  
Dew Point 53 °F    
Average Humidity 78    
Maximum Humidity 91    
Minimum Humidity 60    
Precipitation  
Precipitation 0.06 in - - ()
Sea Level Pressure  
Sea Level Pressure 30.03 in    
Wind  
Wind Speed 16 mph (NNE)    
Max Wind Speed 33 mph    
Max Gust Speed 48 mph    
Visibility 10 miles    
Events Rain    
Averages and records for this station are not official NWS values.
T = Trace of Precipitation, MM = Missing Value Source: NWS Daily Summary

Daily Weather History Graph

Daily Weather History Graph

Search for Another Location

Airport:

Trip Planner

Search our weather history database for the weather conditions in past years. The results will help you decide how hot, cold, wet, or windy it might be!

Date:

Astronomy

Jun. 07, 2014 Rise Set
Actual Time 6:07 AM CDT 9:05 PM CDT
Civil Twilight 5:34 AM CDT 9:38 PM CDT
Nautical Twilight 4:52 AM CDT 10:20 PM CDT
Astronomical Twilight 4:04 AM CDT 11:08 PM CDT
Moon 3:23 PM CDT (6/7) 2:30 AM CDT (6/7)
Length of Visible Light 16h 04m
Length of Day
14h 58m
Waxing Gibbous, 68% of the Moon is Illuminated
Jun 7
Waxing Gibbous
Jun 12
Full
Jun 19
Last Quarter
Jun 27
New
Jul 5
First Quarter

Hourly Weather History & Observations

Time (CDT) Temp. Dew Point Humidity Pressure Visibility Wind Dir Wind Speed Gust Speed Precip Events Conditions
12:15 AM 59.9 °F 57.2 °F 91% 29.89 in 10.0 mi NNE 21.9 mph 32.2 mph N/A Rain Light Rain
12:35 AM 60.1 °F 57.2 °F 90% 29.89 in 10.0 mi NNE 26.5 mph 31.1 mph N/A   Light Drizzle
12:55 AM 60.3 °F 57.2 °F 90% 29.92 in 10.0 mi NE 19.6 mph 28.8 mph 0.01 in Rain Light Rain
1:15 AM 59.9 °F 57.0 °F 90% 29.82 in 5.0 mi East 33.4 mph 48.3 mph 0.05 in Rain Light Rain
1:35 AM 60.8 °F 57.7 °F 90% 29.89 in 10.0 mi NE 16.1 mph - 0.05 in   Mostly Cloudy
1:55 AM 60.8 °F 57.7 °F 90% 29.91 in 10.0 mi NNE 11.5 mph - 0.05 in   Mostly Cloudy
2:15 AM 61.5 °F 57.9 °F 88% 29.92 in 10.0 mi NNE 10.4 mph - N/A   Mostly Cloudy
2:35 AM 61.7 °F 58.1 °F 88% 29.92 in 10.0 mi NE 11.5 mph - N/A   Mostly Cloudy
2:55 AM 61.7 °F 58.1 °F 88% 29.92 in 10.0 mi NNE 17.3 mph - N/A   Overcast
3:15 AM 60.8 °F 57.7 °F 90% 29.93 in 10.0 mi NNE 18.4 mph - N/A   Overcast
3:35 AM 61.0 °F 58.1 °F 90% 29.95 in 10.0 mi NNE 15.0 mph - N/A   Overcast
3:55 AM 61.0 °F 58.1 °F 90% 29.96 in 10.0 mi NNE 12.7 mph - N/A   Overcast
4:15 AM 61.0 °F 57.9 °F 90% 29.97 in 10.0 mi NNE 13.8 mph 19.6 mph N/A   Overcast
4:35 AM 60.8 °F 57.6 °F 89% 29.97 in 10.0 mi NNE 12.7 mph - N/A   Overcast
4:55 AM 59.2 °F 55.9 °F 89% 29.99 in 10.0 mi North 18.4 mph 25.3 mph N/A   Overcast
5:15 AM 56.7 °F 53.8 °F 90% 29.99 in 10.0 mi North 15.0 mph - N/A   Overcast
5:35 AM 55.4 °F 52.5 °F 90% 30.00 in 10.0 mi North 16.1 mph 25.3 mph N/A   Overcast
5:55 AM 54.5 °F 51.3 °F 89% 30.01 in 10.0 mi North 20.7 mph 27.6 mph N/A   Overcast
6:15 AM 54.1 °F 50.9 °F 89% 30.01 in 10.0 mi North 19.6 mph 25.3 mph N/A   Overcast
6:55 AM 53.6 °F 50.0 °F 88% 30.01 in 10.0 mi North 16.1 mph 23.0 mph N/A   Overcast
7:15 AM 53.6 °F 49.8 °F 87% 30.02 in 10.0 mi NNW 16.1 mph 23.0 mph N/A   Overcast
7:35 AM 53.6 °F 49.6 °F 86% 30.03 in 10.0 mi NNW 15.0 mph 25.3 mph N/A   Overcast
7:55 AM 53.6 °F 49.8 °F 87% 30.02 in 10.0 mi NNW 13.8 mph 21.9 mph N/A   Overcast
8:15 AM 54.0 °F 48.0 °F 80% 30.02 in 10.0 mi North 16.1 mph 26.5 mph N/A   Overcast
8:35 AM 54.5 °F 48.6 °F 80% 30.02 in 10.0 mi North 17.3 mph 24.2 mph N/A   Mostly Cloudy
8:55 AM 54.5 °F 49.3 °F 83% 30.02 in 10.0 mi North 16.1 mph 24.2 mph N/A   Scattered Clouds
9:15 AM 56.3 °F 49.6 °F 78% 30.02 in 10.0 mi NNE 19.6 mph 24.2 mph N/A   Scattered Clouds
9:35 AM 56.7 °F 50.0 °F 78% 30.02 in 10.0 mi NNE 18.4 mph - N/A   Clear
9:55 AM 57.6 °F 50.9 °F 78% 30.02 in 10.0 mi NNE 19.6 mph - N/A   Clear
10:15 AM 59.2 °F 51.6 °F 76% 30.02 in 10.0 mi NNE 19.6 mph 24.2 mph N/A   Scattered Clouds
10:35 AM 57.4 °F 51.1 °F 79% 30.06 in 10.0 mi North 16.1 mph 21.9 mph N/A   Mostly Cloudy
10:55 AM 56.7 °F 51.1 °F 82% 30.07 in 10.0 mi North 15.0 mph 20.7 mph N/A   Overcast
11:15 AM 57.4 °F 51.4 °F 81% 30.07 in 10.0 mi North 18.4 mph 21.9 mph N/A   Overcast
11:35 AM 57.2 °F 51.1 °F 80% 30.07 in 10.0 mi North 15.0 mph 19.6 mph N/A   Overcast
12:15 PM 59.5 °F 51.6 °F 75% 30.07 in 10.0 mi North 12.7 mph 20.7 mph N/A   Overcast
12:35 PM 59.7 °F 51.8 °F 75% 30.08 in 10.0 mi North 15.0 mph 19.6 mph N/A   Overcast
12:55 PM 60.1 °F 51.8 °F 74% 30.08 in 10.0 mi North 13.8 mph 21.9 mph N/A   Overcast
1:15 PM 60.4 °F 51.6 °F 73% 30.08 in 10.0 mi North 13.8 mph 21.9 mph N/A   Overcast
1:35 PM 60.8 °F 52.2 °F 73% 30.08 in 10.0 mi North 16.1 mph 20.7 mph N/A   Overcast
1:55 PM 61.5 °F 52.2 °F 71% 30.07 in 10.0 mi North 13.8 mph - N/A   Overcast
2:15 PM 61.7 °F 52.3 °F 71% 30.07 in 10.0 mi North 15.0 mph - N/A   Overcast
2:35 PM 62.1 °F 52.7 °F 71% 30.07 in 10.0 mi NNE 12.7 mph 18.4 mph N/A   Overcast
2:55 PM 63.1 °F 52.9 °F 69% 30.07 in 10.0 mi NNE 15.0 mph 19.6 mph N/A   Overcast
3:15 PM 63.1 °F 53.4 °F 71% 30.07 in 10.0 mi NNE 13.8 mph 18.4 mph N/A   Overcast
3:35 PM 64.4 °F 54.0 °F 69% 30.07 in 10.0 mi North 12.7 mph - N/A   Mostly Cloudy
3:55 PM 64.6 °F 53.4 °F 67% 30.07 in 10.0 mi NNE 15.0 mph 20.7 mph N/A   Mostly Cloudy
4:15 PM 65.8 °F 54.0 °F 65% 30.07 in 10.0 mi NNE 15.0 mph - N/A   Scattered Clouds
4:35 PM 66.4 °F 54.9 °F 66% 30.07 in 10.0 mi NE 12.7 mph 20.7 mph N/A   Mostly Cloudy
4:55 PM 66.4 °F 53.8 °F 64% 30.06 in 10.0 mi NE 16.1 mph 21.9 mph N/A   Mostly Cloudy
5:15 PM 66.4 °F 54.0 °F 64% 30.06 in 10.0 mi NNE 13.8 mph 18.4 mph N/A   Mostly Cloudy
5:35 PM 66.9 °F 54.1 °F 63% 30.06 in 10.0 mi NNE 13.8 mph - N/A   Mostly Cloudy
5:55 PM 67.1 °F 53.8 °F 62% 30.06 in 10.0 mi NE 15.0 mph - N/A   Mostly Cloudy
6:15 PM 66.2 °F 53.6 °F 64% 30.05 in 10.0 mi NE 15.0 mph 21.9 mph N/A   Mostly Cloudy
6:35 PM 66.6 °F 52.7 °F 61% 30.06 in 10.0 mi NNE 13.8 mph - N/A   Scattered Clouds
6:55 PM 66.2 °F 52.2 °F 61% 30.05 in 10.0 mi NNE 10.4 mph - N/A   Clear
7:15 PM 65.3 °F 52.3 °F 63% 30.05 in 10.0 mi NE 10.4 mph - N/A   Scattered Clouds
7:35 PM 66.2 °F 52.0 °F 60% 30.05 in 10.0 mi NE 12.7 mph - N/A   Scattered Clouds
7:55 PM 65.5 °F 51.6 °F 61% 30.06 in 10.0 mi NE 13.8 mph - N/A   Clear
8:15 PM 64.9 °F 52.0 °F 63% 30.06 in 10.0 mi NE 12.7 mph - N/A   Scattered Clouds
8:35 PM 63.5 °F 52.2 °F 67% 30.06 in 10.0 mi NE 9.2 mph - N/A   Scattered Clouds
8:55 PM 62.2 °F 52.2 °F 70% 30.08 in 10.0 mi NE 8.1 mph - N/A   Scattered Clouds
9:15 PM 61.9 °F 52.2 °F 70% 30.08 in 10.0 mi NE 11.5 mph - N/A   Mostly Cloudy
9:35 PM 60.4 °F 52.7 °F 76% 30.09 in 10.0 mi NE 6.9 mph - N/A   Mostly Cloudy
9:55 PM 60.1 °F 53.4 °F 79% 30.10 in 10.0 mi ENE 5.8 mph - N/A   Mostly Cloudy
10:15 PM 57.6 °F 53.4 °F 86% 30.10 in 10.0 mi NE 5.8 mph - N/A   Scattered Clouds
10:35 PM 56.5 °F 53.1 °F 88% 30.11 in 7.0 mi NNE 4.6 mph - N/A   Clear
10:55 PM 55.6 °F 52.7 °F 90% 30.12 in 10.0 mi NE 3.5 mph - N/A   Clear
11:15 PM 55.6 °F 52.7 °F 90% 30.12 in 10.0 mi North 4.6 mph - N/A   Clear
11:35 PM 56.5 °F 53.4 °F 89% 30.13 in 10.0 mi North 3.5 mph - N/A   Mostly Cloudy
11:55 PM 57.7 °F 53.4 °F 85% 30.12 in 10.0 mi Calm Calm - N/A   Overcast